Chelsea, MI (48118)

3:23 PM EST on November 24, 2014 (GMT -0500)
Chelsea Springs Condo | Change Station
CLOSE
Current Station
Personal Weather Station
Location: Chelsea, MI
Elevation: 928 ft
Nearby Weather Stations

Elev 928 ft 42.30 °N, 84.03 °W | Updated 9 minutes ago

Overcast
Overcast
38.8 °F
Feels Like 35 °F
N
4.7
Wind Variable Wind from NNE

Today
High -- | Low -- °F
--% Chance of Precip.
Yesterday
High -- | Low -- °F
Precip. -- in
7:37 AM 5:07 PM
Waxing Crescent, 7% visible
Pressure 29.35 in
Visibility 10.0 miles
Clouds Overcast 2700 ft
Windchill 35 °F
Dew Point 31 °F
Humidity 74%
Rainfall 0.42 in
Snow Depth Not available.
UV 0 out of 12
Pollen .10 out of 12
Air Quality Not available.
Flu Activity Not available.
METAR KARB 241953Z 24022G38KT 10SM OVC027 06/00 A2934 RMK AO2 PK WND 24044/1903 SLP938 T00560000

More Conditions Fewer Conditions

Pressure 29.35 in
Visibility 10.0 miles
Clouds Overcast 2700 ft
Windchill 35 °F
Dew Point 31 °F
Humidity 74%
Rainfall 0.42 in
Snow Depth Not available.
UV 0 out of 12
Pollen .10 out of 12
Air Quality Not available.
Flu Activity Not available.
METAR KARB 241953Z 24022G38KT 10SM OVC027 06/00 A2934 RMK AO2 PK WND 24044/1903 SLP938 T00560000

More Conditions Fewer Conditions

10-Day Weather Forecast

Almanac

Astronomy

Nov. 24, 2014 Rise Set
Actual Time
Civil Twilight
Nautical Twilight
Astronomical Twilight
Moon
Length of Visible Light
Length of Day
Tomorrow will be .
, % of the Moon is Illuminated

Today's Extremes

State Highs State Lows

Community

WunderPhotos

Upload Photos

1,773,403 photos uploaded!

WunderBlogs® & News

Nearby

Air Quality

  Air Quality AQ Index Pollutant
Not available.

Snow Depth

Station Depth Elevation

Earthquake Activity

City Distance Mag. Time & Date
Minimum magnitude displayed is 2.5.

Coastal Water Temperatures

Place Temperature

Nearby Weather Stations